sensor_id;sensor_type;location;lat;lon;timestamp;pressure;altitude;pressure_sealevel;temperature;humidity
75891;BME280;64571;47.512;19.054;2024-02-14T00:00:49;100921.81;;;6.62;65.26
75891;BME280;64571;47.512;19.054;2024-02-14T00:03:52;100922.88;;;6.61;65.41
75891;BME280;64571;47.512;19.054;2024-02-14T00:06:54;100918.44;;;6.60;65.48
75891;BME280;64571;47.512;19.054;2024-02-14T00:09:58;100916.47;;;6.55;65.60
75891;BME280;64571;47.512;19.054;2024-02-14T00:13:01;100903.56;;;6.39;66.30
75891;BME280;64571;47.512;19.054;2024-02-14T00:16:05;100928.78;;;6.48;66.37
75891;BME280;64571;47.512;19.054;2024-02-14T00:19:08;100924.69;;;6.50;66.05
75891;BME280;64571;47.512;19.054;2024-02-14T00:22:11;100933.25;;;6.49;66.36
75891;BME280;64571;47.512;19.054;2024-02-14T00:25:14;100922.81;;;6.34;66.36
75891;BME280;64571;47.512;19.054;2024-02-14T00:28:23;100927.78;;;6.32;65.98
75891;BME280;64571;47.512;19.054;2024-02-14T00:31:29;100938.75;;;6.49;66.45
75891;BME280;64571;47.512;19.054;2024-02-14T00:34:32;100924.19;;;6.31;66.29
75891;BME280;64571;47.512;19.054;2024-02-14T00:37:35;100941.44;;;6.44;66.34
75891;BME280;64571;47.512;19.054;2024-02-14T00:40:37;100924.69;;;6.28;66.21
75891;BME280;64571;47.512;19.054;2024-02-14T00:43:40;100944.97;;;6.39;65.93
75891;BME280;64571;47.512;19.054;2024-02-14T00:46:43;100954.28;;;6.33;66.03
75891;BME280;64571;47.512;19.054;2024-02-14T00:49:46;100951.19;;;6.29;66.26
75891;BME280;64571;47.512;19.054;2024-02-14T00:52:48;100957.81;;;6.28;66.11
75891;BME280;64571;47.512;19.054;2024-02-14T00:55:51;100952.22;;;6.23;65.80
75891;BME280;64571;47.512;19.054;2024-02-14T00:58:53;100960.50;;;6.23;66.06
75891;BME280;64571;47.512;19.054;2024-02-14T01:01:56;100959.09;;;6.21;65.78
75891;BME280;64571;47.512;19.054;2024-02-14T01:04:59;100962.78;;;6.26;65.98
75891;BME280;64571;47.512;19.054;2024-02-14T01:08:03;100962.19;;;6.24;65.62
75891;BME280;64571;47.512;19.054;2024-02-14T01:11:05;100942.47;;;6.16;65.43
75891;BME280;64571;47.512;19.054;2024-02-14T01:14:08;100948.56;;;6.18;65.46
75891;BME280;64571;47.512;19.054;2024-02-14T01:17:11;100942.13;;;6.12;65.48
75891;BME280;64571;47.512;19.054;2024-02-14T01:20:13;100942.13;;;6.12;65.55
75891;BME280;64571;47.512;19.054;2024-02-14T01:23:16;100943.81;;;6.13;65.71
75891;BME280;64571;47.512;19.054;2024-02-14T01:26:18;100956.59;;;6.19;65.86
75891;BME280;64571;47.512;19.054;2024-02-14T01:29:22;100961.84;;;6.21;65.60
75891;BME280;64571;47.512;19.054;2024-02-14T01:32:25;100933.28;;;6.10;65.48
75891;BME280;64571;47.512;19.054;2024-02-14T01:35:30;100940.66;;;6.04;65.70
75891;BME280;64571;47.512;19.054;2024-02-14T01:38:33;100955.34;;;6.10;66.16
75891;BME280;64571;47.512;19.054;2024-02-14T01:41:38;100963.13;;;6.13;66.19
75891;BME280;64571;47.512;19.054;2024-02-14T01:44:40;100962.81;;;6.09;66.42
75891;BME280;64571;47.512;19.054;2024-02-14T01:47:44;100956.97;;;6.06;65.82
75891;BME280;64571;47.512;19.054;2024-02-14T01:50:47;100959.72;;;6.06;66.00
75891;BME280;64571;47.512;19.054;2024-02-14T01:53:51;100945.69;;;5.91;65.75
75891;BME280;64571;47.512;19.054;2024-02-14T01:56:56;100937.41;;;5.91;65.82
75891;BME280;64571;47.512;19.054;2024-02-14T02:00:00;100951.94;;;6.03;65.53
75891;BME280;64571;47.512;19.054;2024-02-14T02:03:13;100960.81;;;6.05;64.72
75891;BME280;64571;47.512;19.054;2024-02-14T02:06:17;100956.97;;;6.06;64.40
75891;BME280;64571;47.512;19.054;2024-02-14T02:09:19;100944.63;;;5.92;64.62
75891;BME280;64571;47.512;19.054;2024-02-14T02:12:23;100971.50;;;6.01;64.67
75891;BME280;64571;47.512;19.054;2024-02-14T02:15:29;100956.72;;;5.91;64.79
75891;BME280;64571;47.512;19.054;2024-02-14T02:18:33;100965.09;;;5.96;64.46
75891;BME280;64571;47.512;19.054;2024-02-14T02:21:36;100969.59;;;6.02;64.44
75891;BME280;64571;47.512;19.054;2024-02-14T02:24:39;100971.78;;;6.00;63.96
75891;BME280;64571;47.512;19.054;2024-02-14T02:27:42;100974.88;;;6.03;63.99
75891;BME280;64571;47.512;19.054;2024-02-14T02:30:46;100975.44;;;6.05;63.58
75891;BME280;64571;47.512;19.054;2024-02-14T02:33:49;100977.38;;;6.05;63.57
75891;BME280;64571;47.512;19.054;2024-02-14T02:36:54;100972.34;;;6.02;63.19
75891;BME280;64571;47.512;19.054;2024-02-14T02:39:57;100974.47;;;5.95;63.32
75891;BME280;64571;47.512;19.054;2024-02-14T02:42:59;100979.13;;;5.94;63.69
75891;BME280;64571;47.512;19.054;2024-02-14T02:46:02;100983.13;;;5.87;63.98
75891;BME280;64571;47.512;19.054;2024-02-14T02:49:05;100981.97;;;5.82;63.84
75891;BME280;64571;47.512;19.054;2024-02-14T02:52:08;100971.28;;;5.69;64.21
75891;BME280;64571;47.512;19.054;2024-02-14T02:55:12;100976.44;;;5.66;64.43
75891;BME280;64571;47.512;19.054;2024-02-14T02:58:20;100984.47;;;5.67;64.56
75891;BME280;64571;47.512;19.054;2024-02-14T03:01:23;100995.06;;;5.75;64.44
75891;BME280;64571;47.512;19.054;2024-02-14T03:04:27;100989.00;;;5.73;64.12
75891;BME280;64571;47.512;19.054;2024-02-14T03:07:49;100983.97;;;5.70;63.58
75891;BME280;64571;47.512;19.054;2024-02-14T03:10:53;100993.41;;;5.74;63.40
75891;BME280;64571;47.512;19.054;2024-02-14T03:13:55;100996.78;;;5.76;63.16
75891;BME280;64571;47.512;19.054;2024-02-14T03:17:01;101011.81;;;5.86;63.40
75891;BME280;64571;47.512;19.054;2024-02-14T03:20:05;101016.22;;;5.87;63.52
75891;BME280;64571;47.512;19.054;2024-02-14T03:23:18;101023.06;;;5.84;63.37
75891;BME280;64571;47.512;19.054;2024-02-14T03:26:21;101027.19;;;5.81;63.09
75891;BME280;64571;47.512;19.054;2024-02-14T03:29:23;101032.09;;;5.79;63.37
75891;BME280;64571;47.512;19.054;2024-02-14T03:32:26;101043.47;;;5.83;63.55
75891;BME280;64571;47.512;19.054;2024-02-14T03:35:28;101036.53;;;5.80;63.61
75891;BME280;64571;47.512;19.054;2024-02-14T03:38:31;101039.81;;;5.77;64.36
75891;BME280;64571;47.512;19.054;2024-02-14T03:41:33;101048.66;;;5.79;64.65
75891;BME280;64571;47.512;19.054;2024-02-14T03:44:36;101036.63;;;5.69;64.28
75891;BME280;64571;47.512;19.054;2024-02-14T03:47:40;101035.59;;;5.58;64.48
75891;BME280;64571;47.512;19.054;2024-02-14T03:50:44;101059.16;;;5.66;64.71
75891;BME280;64571;47.512;19.054;2024-02-14T03:53:47;101052.41;;;5.56;65.00
75891;BME280;64571;47.512;19.054;2024-02-14T03:56:50;101067.84;;;5.57;65.18
75891;BME280;64571;47.512;19.054;2024-02-14T03:59:55;101070.69;;;5.46;65.60
75891;BME280;64571;47.512;19.054;2024-02-14T04:02:58;101080.19;;;5.38;66.19
75891;BME280;64571;47.512;19.054;2024-02-14T04:06:02;101082.09;;;5.38;66.87
75891;BME280;64571;47.512;19.054;2024-02-14T04:09:04;101062.75;;;5.21;67.71
75891;BME280;64571;47.512;19.054;2024-02-14T04:12:07;101085.41;;;5.23;68.60
75891;BME280;64571;47.512;19.054;2024-02-14T04:15:12;101071.41;;;5.13;69.12
75891;BME280;64571;47.512;19.054;2024-02-14T04:18:15;101098.53;;;5.32;70.01
75891;BME280;64571;47.512;19.054;2024-02-14T04:21:20;101109.59;;;5.21;70.39
75891;BME280;64571;47.512;19.054;2024-02-14T04:24:23;101106.50;;;5.17;70.39
75891;BME280;64571;47.512;19.054;2024-02-14T04:27:27;101116.47;;;5.06;70.71
75891;BME280;64571;47.512;19.054;2024-02-14T04:30:30;101095.69;;;4.87;70.63
75891;BME280;64571;47.512;19.054;2024-02-14T04:33:32;101121.06;;;5.01;70.73
75891;BME280;64571;47.512;19.054;2024-02-14T04:36:35;101097.47;;;4.81;71.57
75891;BME280;64571;47.512;19.054;2024-02-14T04:39:38;101118.66;;;4.93;71.61
75891;BME280;64571;47.512;19.054;2024-02-14T04:42:41;101121.53;;;4.98;71.46
75891;BME280;64571;47.512;19.054;2024-02-14T04:45:44;101107.44;;;4.82;71.60
75891;BME280;64571;47.512;19.054;2024-02-14T04:48:46;101123.56;;;4.91;71.96
75891;BME280;64571;47.512;19.054;2024-02-14T04:51:54;101120.59;;;4.80;71.98
75891;BME280;64571;47.512;19.054;2024-02-14T04:54:56;101142.25;;;4.89;72.46
75891;BME280;64571;47.512;19.054;2024-02-14T04:57:59;101140.59;;;4.88;72.94
75891;BME280;64571;47.512;19.054;2024-02-14T05:01:02;101145.50;;;4.86;72.75
75891;BME280;64571;47.512;19.054;2024-02-14T05:04:04;101142.37;;;4.94;72.97
75891;BME280;64571;47.512;19.054;2024-02-14T05:07:07;101118.47;;;4.82;72.71
75891;BME280;64571;47.512;19.054;2024-02-14T05:10:10;101140.81;;;4.86;73.25
75891;BME280;64571;47.512;19.054;2024-02-14T05:13:13;101145.37;;;4.80;73.57
75891;BME280;64571;47.512;19.054;2024-02-14T05:16:18;101150.78;;;4.87;73.45
75891;BME280;64571;47.512;19.054;2024-02-14T05:19:21;101148.03;;;4.87;73.45
75891;BME280;64571;47.512;19.054;2024-02-14T05:22:24;101150.41;;;4.83;73.59
75891;BME280;64571;47.512;19.054;2024-02-14T05:25:27;101154.72;;;4.79;74.04
75891;BME280;64571;47.512;19.054;2024-02-14T05:28:32;101152.81;;;4.80;74.29
75891;BME280;64571;47.512;19.054;2024-02-14T05:31:45;101132.94;;;4.66;74.39
75891;BME280;64571;47.512;19.054;2024-02-14T05:34:48;101145.53;;;4.62;74.53
75891;BME280;64571;47.512;19.054;2024-02-14T05:37:50;101166.00;;;4.66;75.09
75891;BME280;64571;47.512;19.054;2024-02-14T05:40:53;101175.34;;;4.65;75.29
75891;BME280;64571;47.512;19.054;2024-02-14T05:43:56;101167.91;;;4.66;75.31
75891;BME280;64571;47.512;19.054;2024-02-14T05:46:59;101159.06;;;4.52;75.40
75891;BME280;64571;47.512;19.054;2024-02-14T05:50:03;101159.16;;;4.57;75.48
75891;BME280;64571;47.512;19.054;2024-02-14T05:53:06;101165.25;;;4.36;75.94
75891;BME280;64571;47.512;19.054;2024-02-14T05:56:08;101185.59;;;4.35;76.64
75891;BME280;64571;47.512;19.054;2024-02-14T05:59:11;101195.41;;;4.30;76.80
75891;BME280;64571;47.512;19.054;2024-02-14T06:02:13;101178.66;;;4.20;76.80
75891;BME280;64571;47.512;19.054;2024-02-14T06:05:16;101179.09;;;4.17;76.99
75891;BME280;64571;47.512;19.054;2024-02-14T06:08:19;101183.69;;;4.23;76.56
75891;BME280;64571;47.512;19.054;2024-02-14T06:11:22;101205.59;;;4.42;76.44
75891;BME280;64571;47.512;19.054;2024-02-14T06:14:24;101205.34;;;4.43;75.43
75891;BME280;64571;47.512;19.054;2024-02-14T06:17:27;101192.78;;;4.36;75.39
75891;BME280;64571;47.512;19.054;2024-02-14T06:20:30;101216.97;;;4.57;75.10
75891;BME280;64571;47.512;19.054;2024-02-14T06:23:32;101195.19;;;4.55;74.03
75891;BME280;64571;47.512;19.054;2024-02-14T06:26:35;101217.56;;;4.71;73.62
75891;BME280;64571;47.512;19.054;2024-02-14T06:29:38;101210.50;;;4.63;73.76
75891;BME280;64571;47.512;19.054;2024-02-14T06:32:41;101211.25;;;4.70;73.75
75891;BME280;64571;47.512;19.054;2024-02-14T06:35:44;101214.47;;;4.79;74.03
75891;BME280;64571;47.512;19.054;2024-02-14T06:38:47;101217.47;;;4.77;74.47
75891;BME280;64571;47.512;19.054;2024-02-14T06:41:49;101225.84;;;4.82;74.54
75891;BME280;64571;47.512;19.054;2024-02-14T06:44:52;101206.06;;;4.86;73.99
75891;BME280;64571;47.512;19.054;2024-02-14T06:47:57;101219.97;;;4.91;73.59
75891;BME280;64571;47.512;19.054;2024-02-14T06:51:00;101229.19;;;4.96;73.72
75891;BME280;64571;47.512;19.054;2024-02-14T06:54:03;101231.13;;;4.96;73.02
75891;BME280;64571;47.512;19.054;2024-02-14T06:57:13;101236.25;;;4.92;72.72
75891;BME280;64571;47.512;19.054;2024-02-14T07:00:19;101233.50;;;4.92;72.84
75891;BME280;64571;47.512;19.054;2024-02-14T07:03:21;101240.94;;;4.92;73.19
75891;BME280;64571;47.512;19.054;2024-02-14T07:06:24;101217.19;;;4.91;72.62
75891;BME280;64571;47.512;19.054;2024-02-14T07:09:27;101249.78;;;4.94;72.40
75891;BME280;64571;47.512;19.054;2024-02-14T07:12:31;101250.87;;;4.93;72.52
75891;BME280;64571;47.512;19.054;2024-02-14T07:15:33;101256.50;;;4.98;72.72
75891;BME280;64571;47.512;19.054;2024-02-14T07:18:38;101249.66;;;5.12;72.33
75891;BME280;64571;47.512;19.054;2024-02-14T07:21:41;101248.31;;;5.26;71.14
75891;BME280;64571;47.512;19.054;2024-02-14T07:24:45;101254.28;;;5.47;70.86
75891;BME280;64571;47.512;19.054;2024-02-14T07:27:49;101253.53;;;5.63;69.63
75891;BME280;64571;47.512;19.054;2024-02-14T07:30:52;101222.19;;;5.41;69.03
75891;BME280;64571;47.512;19.054;2024-02-14T07:33:54;101221.03;;;5.65;69.08
75891;BME280;64571;47.512;19.054;2024-02-14T07:36:59;101238.78;;;5.98;69.20
75891;BME280;64571;47.512;19.054;2024-02-14T07:40:03;101250.72;;;6.15;69.30
75891;BME280;64571;47.512;19.054;2024-02-14T07:43:06;101235.62;;;6.06;69.23
75891;BME280;64571;47.512;19.054;2024-02-14T07:46:09;101253.34;;;6.22;68.79
75891;BME280;64571;47.512;19.054;2024-02-14T07:49:14;101253.25;;;6.33;68.65
75891;BME280;64571;47.512;19.054;2024-02-14T07:52:17;101236.84;;;6.27;68.12
75891;BME280;64571;47.512;19.054;2024-02-14T07:55:20;101258.78;;;6.33;68.03
75891;BME280;64571;47.512;19.054;2024-02-14T07:58:24;101235.19;;;6.59;66.94
75891;BME280;64571;47.512;19.054;2024-02-14T08:01:30;101251.75;;;6.93;64.76
75891;BME280;64571;47.512;19.054;2024-02-14T08:04:33;101253.25;;;7.01;63.85
75891;BME280;64571;47.512;19.054;2024-02-14T08:07:35;101254.56;;;7.15;63.51
75891;BME280;64571;47.512;19.054;2024-02-14T08:10:47;101256.25;;;7.16;62.07
75891;BME280;64571;47.512;19.054;2024-02-14T08:13:49;101262.34;;;7.57;61.48
75891;BME280;64571;47.512;19.054;2024-02-14T08:16:53;101261.50;;;7.56;61.12
75891;BME280;64571;47.512;19.054;2024-02-14T08:19:56;101258.09;;;7.49;60.44
75891;BME280;64571;47.512;19.054;2024-02-14T08:22:59;101261.59;;;7.83;59.68
75891;BME280;64571;47.512;19.054;2024-02-14T08:26:01;101265.75;;;7.86;59.20
75891;BME280;64571;47.512;19.054;2024-02-14T08:29:04;101260.09;;;7.76;60.12
75891;BME280;64571;47.512;19.054;2024-02-14T08:32:06;101261.66;;;8.16;59.46
75891;BME280;64571;47.512;19.054;2024-02-14T08:35:09;101265.81;;;8.40;58.73
75891;BME280;64571;47.512;19.054;2024-02-14T08:38:12;101266.09;;;8.39;58.90
75891;BME280;64571;47.512;19.054;2024-02-14T08:41:15;101265.69;;;8.57;58.53
75891;BME280;64571;47.512;19.054;2024-02-14T08:44:17;101265.66;;;8.52;57.42
75891;BME280;64571;47.512;19.054;2024-02-14T08:47:20;101267.59;;;8.51;55.67
75891;BME280;64571;47.512;19.054;2024-02-14T08:50:23;101275.19;;;8.66;55.43
75891;BME280;64571;47.512;19.054;2024-02-14T08:53:25;101267.66;;;8.94;53.77
75891;BME280;64571;47.512;19.054;2024-02-14T08:56:29;101264.50;;;8.80;53.65
75891;BME280;64571;47.512;19.054;2024-02-14T08:59:31;101264.59;;;8.95;53.18
75891;BME280;64571;47.512;19.054;2024-02-14T09:02:34;101258.81;;;8.97;52.85
75891;BME280;64571;47.512;19.054;2024-02-14T09:05:39;101254.09;;;8.97;53.09
75891;BME280;64571;47.512;19.054;2024-02-14T09:08:43;101237.78;;;9.01;53.13
75891;BME280;64571;47.512;19.054;2024-02-14T09:11:46;101255.47;;;9.37;51.97
75891;BME280;64571;47.512;19.054;2024-02-14T09:14:48;101241.81;;;9.25;50.92
75891;BME280;64571;47.512;19.054;2024-02-14T09:17:51;101255.56;;;9.57;50.81
75891;BME280;64571;47.512;19.054;2024-02-14T09:20:54;101249.53;;;9.71;50.29
75891;BME280;64571;47.512;19.054;2024-02-14T09:23:59;101242.28;;;9.64;50.38
75891;BME280;64571;47.512;19.054;2024-02-14T09:27:01;101255.41;;;9.84;50.65
75891;BME280;64571;47.512;19.054;2024-02-14T09:30:05;101260.13;;;9.89;50.28
75891;BME280;64571;47.512;19.054;2024-02-14T09:33:09;101238.09;;;9.57;50.12
75891;BME280;64571;47.512;19.054;2024-02-14T09:36:12;101247.06;;;9.84;50.22
75891;BME280;64571;47.512;19.054;2024-02-14T09:39:16;101235.94;;;9.79;50.00
75891;BME280;64571;47.512;19.054;2024-02-14T09:42:28;101251.81;;;9.94;49.73
75891;BME280;64571;47.512;19.054;2024-02-14T09:45:32;101246.03;;;10.01;49.77
75891;BME280;64571;47.512;19.054;2024-02-14T09:48:37;101243.81;;;10.13;49.70
75891;BME280;64571;47.512;19.054;2024-02-14T09:51:41;101242.16;;;10.17;49.34
75891;BME280;64571;47.512;19.054;2024-02-14T09:54:44;101245.75;;;10.18;49.15
75891;BME280;64571;47.512;19.054;2024-02-14T09:57:48;101235.44;;;9.93;47.99
75891;BME280;64571;47.512;19.054;2024-02-14T10:00:52;101227.66;;;9.95;46.30
75891;BME280;64571;47.512;19.054;2024-02-14T10:03:54;101222.41;;;10.03;48.37
75891;BME280;64571;47.512;19.054;2024-02-14T10:06:57;101226.31;;;10.18;48.50
75891;BME280;64571;47.512;19.054;2024-02-14T10:10:06;101224.41;;;10.18;45.89
75891;BME280;64571;47.512;19.054;2024-02-14T10:13:08;101226.13;;;10.60;43.80
75891;BME280;64571;47.512;19.054;2024-02-14T10:16:11;101233.91;;;10.53;44.15
75891;BME280;64571;47.512;19.054;2024-02-14T10:19:16;101223.91;;;10.36;44.16
75891;BME280;64571;47.512;19.054;2024-02-14T10:22:19;101219.72;;;10.44;43.65
75891;BME280;64571;47.512;19.054;2024-02-14T10:25:22;101228.91;;;10.50;42.97
75891;BME280;64571;47.512;19.054;2024-02-14T10:28:26;101222.78;;;10.58;43.22
75891;BME280;64571;47.512;19.054;2024-02-14T10:31:38;101225.84;;;10.61;43.46
75891;BME280;64571;47.512;19.054;2024-02-14T10:34:43;101219.75;;;10.54;43.40
75891;BME280;64571;47.512;19.054;2024-02-14T10:37:48;101221.13;;;10.72;43.76
75891;BME280;64571;47.512;19.054;2024-02-14T10:40:51;101218.62;;;10.65;43.93
75891;BME280;64571;47.512;19.054;2024-02-14T10:43:55;101214.47;;;10.68;44.20
75891;BME280;64571;47.512;19.054;2024-02-14T10:47:00;101219.75;;;10.64;43.95
75891;BME280;64571;47.512;19.054;2024-02-14T10:50:06;101207.75;;;11.00;43.40
75891;BME280;64571;47.512;19.054;2024-02-14T10:53:13;101209.44;;;10.75;43.73
75891;BME280;64571;47.512;19.054;2024-02-14T10:56:18;101203.19;;;11.34;43.39
75891;BME280;64571;47.512;19.054;2024-02-14T10:59:23;101186.09;;;10.81;43.72
75891;BME280;64571;47.512;19.054;2024-02-14T11:02:26;101186.94;;;10.77;44.18
75891;BME280;64571;47.512;19.054;2024-02-14T11:05:45;101180.00;;;10.59;44.71
75891;BME280;64571;47.512;19.054;2024-02-14T11:09:04;101192.47;;;10.87;45.00
75891;BME280;64571;47.512;19.054;2024-02-14T11:12:13;101188.31;;;10.38;45.77
75891;BME280;64571;47.512;19.054;2024-02-14T11:15:23;101192.75;;;10.80;45.83
75891;BME280;64571;47.512;19.054;2024-02-14T11:18:29;101190.81;;;10.91;46.05
75891;BME280;64571;47.512;19.054;2024-02-14T11:21:40;101177.75;;;10.86;45.76
75891;BME280;64571;47.512;19.054;2024-02-14T11:24:46;101180.72;;;11.10;45.64
75891;BME280;64571;47.512;19.054;2024-02-14T11:27:49;101183.84;;;10.83;46.30
75891;BME280;64571;47.512;19.054;2024-02-14T11:30:59;101182.69;;;11.10;46.15
75891;BME280;64571;47.512;19.054;2024-02-14T11:34:06;101162.66;;;11.13;46.08
75891;BME280;64571;47.512;19.054;2024-02-14T11:37:11;101177.94;;;11.26;45.72
75891;BME280;64571;47.512;19.054;2024-02-14T11:40:13;101175.44;;;11.19;45.78
75891;BME280;64571;47.512;19.054;2024-02-14T11:43:18;101167.62;;;11.16;45.51
75891;BME280;64571;47.512;19.054;2024-02-14T11:46:22;101168.44;;;11.27;45.39
75891;BME280;64571;47.512;19.054;2024-02-14T11:49:25;101152.66;;;11.07;44.70
75891;BME280;64571;47.512;19.054;2024-02-14T11:52:27;101148.44;;;11.20;44.46
75891;BME280;64571;47.512;19.054;2024-02-14T11:55:33;101159.78;;;11.33;43.82
75891;BME280;64571;47.512;19.054;2024-02-14T11:58:36;101141.47;;;11.22;43.91
75891;BME280;64571;47.512;19.054;2024-02-14T12:01:39;101136.66;;;11.38;43.31
75891;BME280;64571;47.512;19.054;2024-02-14T12:04:42;101157.50;;;11.51;43.24
75891;BME280;64571;47.512;19.054;2024-02-14T12:07:44;101156.81;;;11.74;42.95
75891;BME280;64571;47.512;19.054;2024-02-14T12:10:48;101135.63;;;11.78;42.66
75891;BME280;64571;47.512;19.054;2024-02-14T12:13:52;101153.75;;;11.76;43.41
75891;BME280;64571;47.512;19.054;2024-02-14T12:17:01;101145.94;;;11.83;42.60
75891;BME280;64571;47.512;19.054;2024-02-14T12:20:09;101149.81;;;11.82;42.12
75891;BME280;64571;47.512;19.054;2024-02-14T12:23:15;101139.03;;;11.65;42.37
75891;BME280;64571;47.512;19.054;2024-02-14T12:26:19;101159.41;;;11.55;42.62
75891;BME280;64571;47.512;19.054;2024-02-14T12:29:23;101150.12;;;11.75;42.86
75891;BME280;64571;47.512;19.054;2024-02-14T12:32:26;101150.00;;;11.46;42.16
75891;BME280;64571;47.512;19.054;2024-02-14T12:35:28;101127.59;;;11.07;43.04
75891;BME280;64571;47.512;19.054;2024-02-14T12:38:33;101146.69;;;11.44;42.91
75891;BME280;64571;47.512;19.054;2024-02-14T12:41:35;101141.22;;;11.73;43.20
75891;BME280;64571;47.512;19.054;2024-02-14T12:44:42;101144.34;;;11.61;42.68
75891;BME280;64571;47.512;19.054;2024-02-14T12:47:45;101125.22;;;11.50;42.24
75891;BME280;64571;47.512;19.054;2024-02-14T12:50:47;101111.09;;;11.36;41.91
75891;BME280;64571;47.512;19.054;2024-02-14T12:53:52;101126.13;;;11.35;42.05
75891;BME280;64571;47.512;19.054;2024-02-14T12:56:54;101135.81;;;11.43;42.79
75891;BME280;64571;47.512;19.054;2024-02-14T12:59:57;101110.28;;;11.25;43.23
75891;BME280;64571;47.512;19.054;2024-02-14T13:03:00;101112.75;;;11.37;43.32
75891;BME280;64571;47.512;19.054;2024-02-14T13:06:04;101105.53;;;11.36;43.34
75891;BME280;64571;47.512;19.054;2024-02-14T13:09:06;101128.25;;;11.48;43.95
75891;BME280;64571;47.512;19.054;2024-02-14T13:12:10;101111.97;;;11.26;44.52
75891;BME280;64571;47.512;19.054;2024-02-14T13:15:13;101124.69;;;11.37;45.11
75891;BME280;64571;47.512;19.054;2024-02-14T13:18:16;101115.84;;;11.25;45.37
75891;BME280;64571;47.512;19.054;2024-02-14T13:21:20;101116.97;;;11.24;46.02
75891;BME280;64571;47.512;19.054;2024-02-14T13:24:23;101118.66;;;11.20;46.16
75891;BME280;64571;47.512;19.054;2024-02-14T13:27:26;101131.22;;;11.12;46.95
75891;BME280;64571;47.512;19.054;2024-02-14T13:30:29;101128.25;;;10.83;48.33
75891;BME280;64571;47.512;19.054;2024-02-14T13:33:32;101125.13;;;11.05;48.39
75891;BME280;64571;47.512;19.054;2024-02-14T13:36:35;101125.37;;;11.14;48.92
75891;BME280;64571;47.512;19.054;2024-02-14T13:39:37;101110.94;;;11.02;48.71
75891;BME280;64571;47.512;19.054;2024-02-14T13:42:40;101125.28;;;11.29;48.94
75891;BME280;64571;47.512;19.054;2024-02-14T13:45:44;101129.50;;;11.27;48.73
75891;BME280;64571;47.512;19.054;2024-02-14T13:48:48;101128.09;;;11.24;49.28
75891;BME280;64571;47.512;19.054;2024-02-14T13:51:51;101123.44;;;11.09;49.55
75891;BME280;64571;47.512;19.054;2024-02-14T13:54:54;101127.03;;;11.15;49.64
75891;BME280;64571;47.512;19.054;2024-02-14T13:57:58;101109.31;;;10.90;50.21
75891;BME280;64571;47.512;19.054;2024-02-14T14:01:01;101108.75;;;10.99;50.27
75891;BME280;64571;47.512;19.054;2024-02-14T14:04:04;101127.28;;;11.19;50.36
75891;BME280;64571;47.512;19.054;2024-02-14T14:07:06;101122.88;;;11.12;50.37
75891;BME280;64571;47.512;19.054;2024-02-14T14:10:12;101126.03;;;10.70;50.91
75891;BME280;64571;47.512;19.054;2024-02-14T14:13:14;101117.75;;;10.55;51.18
75891;BME280;64571;47.512;19.054;2024-02-14T14:16:17;101129.94;;;10.64;51.25
75891;BME280;64571;47.512;19.054;2024-02-14T14:19:20;101130.50;;;10.76;51.58
75891;BME280;64571;47.512;19.054;2024-02-14T14:22:22;101123.81;;;10.62;51.43
75891;BME280;64571;47.512;19.054;2024-02-14T14:25:25;101136.62;;;10.43;52.05
75891;BME280;64571;47.512;19.054;2024-02-14T14:28:29;101129.41;;;10.52;52.06
75891;BME280;64571;47.512;19.054;2024-02-14T14:31:34;101131.06;;;10.48;52.13
75891;BME280;64571;47.512;19.054;2024-02-14T14:34:38;101121.06;;;10.52;51.94
75891;BME280;64571;47.512;19.054;2024-02-14T14:37:40;101132.19;;;10.47;51.91
75891;BME280;64571;47.512;19.054;2024-02-14T14:40:43;101127.75;;;10.56;51.77
75891;BME280;64571;47.512;19.054;2024-02-14T14:43:47;101120.78;;;10.53;51.74
75891;BME280;64571;47.512;19.054;2024-02-14T14:46:51;101124.13;;;10.40;52.13
75891;BME280;64571;47.512;19.054;2024-02-14T14:49:54;101121.06;;;10.47;52.30
75891;BME280;64571;47.512;19.054;2024-02-14T14:52:57;101122.19;;;10.46;52.09
75891;BME280;64571;47.512;19.054;2024-02-14T14:56:00;101126.91;;;10.40;52.58
75891;BME280;64571;47.512;19.054;2024-02-14T14:59:03;101127.19;;;10.44;52.84
75891;BME280;64571;47.512;19.054;2024-02-14T15:02:06;101112.19;;;10.24;52.96
75891;BME280;64571;47.512;19.054;2024-02-14T15:05:10;101131.94;;;10.33;53.19
75891;BME280;64571;47.512;19.054;2024-02-14T15:08:14;101132.47;;;10.40;53.28
75891;BME280;64571;47.512;19.054;2024-02-14T15:11:17;101116.91;;;10.24;53.44
75891;BME280;64571;47.512;19.054;2024-02-14T15:14:20;101131.09;;;10.43;53.39
75891;BME280;64571;47.512;19.054;2024-02-14T15:17:23;101136.34;;;10.24;53.96
75891;BME280;64571;47.512;19.054;2024-02-14T15:20:25;101120.22;;;10.10;54.07
75891;BME280;64571;47.512;19.054;2024-02-14T15:23:28;101143.84;;;10.23;54.19
75891;BME280;64571;47.512;19.054;2024-02-14T15:26:31;101144.16;;;10.27;54.37
75891;BME280;64571;47.512;19.054;2024-02-14T15:29:42;101142.22;;;10.37;54.32
75891;BME280;64571;47.512;19.054;2024-02-14T15:33:04;101159.16;;;10.51;54.68
75891;BME280;64571;47.512;19.054;2024-02-14T15:36:25;101149.97;;;10.35;54.64
75891;BME280;64571;47.512;19.054;2024-02-14T15:39:28;101156.09;;;10.43;55.38
75891;BME280;64571;47.512;19.054;2024-02-14T15:42:30;101159.44;;;10.45;55.38
75891;BME280;64571;47.512;19.054;2024-02-14T15:45:33;101134.41;;;10.19;56.07
75891;BME280;64571;47.512;19.054;2024-02-14T15:48:36;101136.06;;;10.15;56.49
75891;BME280;64571;47.512;19.054;2024-02-14T15:51:38;101147.75;;;10.22;56.51
75891;BME280;64571;47.512;19.054;2024-02-14T15:54:42;101127.44;;;10.06;57.01